map of OMO home
OMO - Airport
Location
City:  Mostar, Bosnia and Herzegovina
Name:Mostar International Airport
ICAO:LQMO
IATA:OMO

Details
Type:Airport (Aerodrome, Airfield)
Use:Public/Civil, International (customs port of entry)
Latitude:4316'58"N (43.282900)
Longitude:1750'45"E (17.845878)
Datum:WGS 1984
Elevation:156 ft (48 m)
Variation:4.35E (WMM2015v2 magnetic declination)
0.13 annual change
Runways:1
Longest:7874 × 158 ft (2400 × 48 m), paved

Time
Time Zone:UTC+1 (DST+2)
Local Time:

Weather
METAR:LQMO 041400Z 31008KT 280V340 9999 -RA FEW045 BKN070 09/03 Q1018
TAF:LQMO 031700Z 0318/0418 02006KT 9999 SCT040 TX12/0413Z TN03/0406Z PROB40
TEMPO 0412/0418 02015KT RA

Related Locations
Nearby:
Farthest:CHT: 11722 mi / 18866 km
Waitangi [Tuuta], CIT, NZ

Find:

   beyond  
but within

Other Information
Maps:
NOTAMs:
Links:
Sources:

  
  • flag of Bosnia and Herzegovina
  

Sectional Chart

Flight Planning
at skyvector.com

Satellite Image

Google Maps Satellite view

 

Copyright © 2004-2019 Karl L. Swartz. All rights reserved.
The Great Circle Mapper name and logo are trademarks of the Great Circle Mapper.
All other trademarks mentioned herein belong to their respective owners.
Please see credits for attibutions and further copyright information.

  Follow gcmap on Facebook Follow gcmap on Twitter GCmap on LinkedIn

hCard Microformat

Geo Microformat